createdAt,value
2022-09-14T00:10:55.290Z,974.7
2022-09-14T00:25:25.452Z,974.5
2022-09-14T00:39:55.162Z,974.5
2022-09-14T00:54:23.501Z,974.4
2022-09-14T01:08:52.379Z,974.2
2022-09-14T01:23:22.345Z,974.1
2022-09-14T01:37:53.297Z,974
2022-09-14T01:52:22.537Z,973.9
2022-09-14T02:06:52.476Z,974
2022-09-14T02:21:21.716Z,973.9
2022-09-14T02:35:52.157Z,973.8
2022-09-14T02:50:19.164Z,973.6
2022-09-14T03:04:51.588Z,973.4
2022-09-14T03:19:21.060Z,973.2
2022-09-14T03:33:49.743Z,973.2
2022-09-14T03:48:17.881Z,973
2022-09-14T04:02:47.812Z,973
2022-09-14T04:17:16.875Z,973
2022-09-14T04:31:47.509Z,973
2022-09-14T04:46:16.930Z,972.9
2022-09-14T05:00:46.455Z,972.7
2022-09-14T05:15:16.625Z,972.8
2022-09-14T05:29:44.297Z,972.7
2022-09-14T05:44:14.118Z,972.6
2022-09-14T05:58:42.775Z,972.5
2022-09-14T06:13:14.402Z,972.5
2022-09-14T06:27:43.365Z,972.5
2022-09-14T06:42:12.594Z,972.5
2022-09-14T06:56:43.141Z,972.5
2022-09-14T07:11:12.615Z,972.6
2022-09-14T07:25:42.749Z,972.6
2022-09-14T07:40:12.038Z,972.7
2022-09-14T07:54:41.946Z,972.6
2022-09-14T08:09:12.138Z,972.4
2022-09-14T08:23:42.642Z,972.3
2022-09-14T08:38:11.790Z,972.3
2022-09-14T08:52:42.297Z,972.4
2022-09-14T09:07:11.239Z,972.4
2022-09-14T09:21:41.911Z,972.4
2022-09-14T09:36:10.819Z,972.4
2022-09-14T09:50:41.388Z,972.2
2022-09-14T10:05:09.818Z,972.4
2022-09-14T10:19:38.847Z,972.2
2022-09-14T10:34:10.380Z,972.1
2022-09-14T10:48:42.110Z,972
2022-09-14T11:03:11.812Z,971.9
2022-09-14T11:17:41.258Z,971.9
2022-09-14T11:32:22.781Z,972
2022-09-14T11:46:45.312Z,972
2022-09-14T12:01:14.398Z,972
2022-09-14T12:15:45.614Z,971.8
2022-09-14T12:30:14.586Z,971.6
2022-09-14T12:44:45.507Z,971.5
2022-09-14T12:59:15.215Z,971.3
2022-09-14T13:13:46.484Z,971.3
2022-09-14T13:28:15.864Z,971.2
2022-09-14T13:42:46.419Z,971.3
2022-09-14T13:57:16.738Z,971.4
2022-09-14T14:11:49.215Z,971.3
2022-09-14T14:26:18.568Z,970.9
2022-09-14T14:40:47.215Z,971
2022-09-14T14:55:16.786Z,971.1
2022-09-14T15:09:46.754Z,970.9
2022-09-14T15:24:16.831Z,971.1
2022-09-14T15:38:46.661Z,970.5
2022-09-14T15:53:14.645Z,970.7
2022-09-14T16:07:44.859Z,970.6
2022-09-14T16:22:14.640Z,970.9
2022-09-14T16:36:45.211Z,970.9
2022-09-14T16:51:14.940Z,970.8
2022-09-14T17:05:42.719Z,971.3
2022-09-14T17:20:11.617Z,971.1
2022-09-14T17:34:40.789Z,971.2
2022-09-14T17:49:07.585Z,971.3
2022-09-14T18:03:38.445Z,971.4
2022-09-14T18:18:08.669Z,971.5
2022-09-14T18:32:39.290Z,971.6
2022-09-14T18:47:07.993Z,971.6
2022-09-14T19:01:38.861Z,971.7
2022-09-14T19:16:08.404Z,971.9
2022-09-14T19:30:38.196Z,972.1
2022-09-14T19:45:08.116Z,972
2022-09-14T19:59:38.504Z,972.2
2022-09-14T20:14:09.982Z,972.1
2022-09-14T20:28:38.194Z,972.1
2022-09-14T20:43:07.978Z,972.2
2022-09-14T20:57:37.738Z,972.2
2022-09-14T21:12:06.956Z,972.3
2022-09-14T21:26:43.355Z,972.3
2022-09-14T21:41:09.522Z,972.4
2022-09-14T21:55:39.201Z,972.5
2022-09-14T22:10:07.897Z,972.5
2022-09-14T22:24:38.879Z,972.6
2022-09-14T22:39:07.607Z,972.7
2022-09-14T22:53:37.466Z,972.9
2022-09-14T23:08:06.564Z,972.9
2022-09-14T23:22:37.729Z,972.9
2022-09-14T23:37:07.374Z,973.1
2022-09-14T23:51:36.608Z,973.1
